sensor_id;sensor_type;location;lat;lon;timestamp;temperature;humidity
47600;DHT22;33323;52.124;6.018;2022-08-20T00:00:42;19.50;99.90
47600;DHT22;33323;52.124;6.018;2022-08-20T00:03:27;19.50;99.90
47600;DHT22;33323;52.124;6.018;2022-08-20T00:06:03;19.50;99.90
47600;DHT22;33323;52.124;6.018;2022-08-20T00:08:44;19.50;99.90
47600;DHT22;33323;52.124;6.018;2022-08-20T00:11:16;19.60;99.90
47600;DHT22;33323;52.124;6.018;2022-08-20T00:13:50;19.60;99.90
47600;DHT22;33323;52.124;6.018;2022-08-20T00:16:21;19.60;99.90
47600;DHT22;33323;52.124;6.018;2022-08-20T00:18:49;19.50;99.90
47600;DHT22;33323;52.124;6.018;2022-08-20T00:21:17;19.60;99.90
47600;DHT22;33323;52.124;6.018;2022-08-20T00:23:53;19.50;99.90
47600;DHT22;33323;52.124;6.018;2022-08-20T00:26:22;19.50;99.90
47600;DHT22;33323;52.124;6.018;2022-08-20T00:28:51;19.60;99.90
47600;DHT22;33323;52.124;6.018;2022-08-20T00:31:20;19.50;99.90
47600;DHT22;33323;52.124;6.018;2022-08-20T00:33:49;19.40;99.90
47600;DHT22;33323;52.124;6.018;2022-08-20T00:36:17;19.50;99.90
47600;DHT22;33323;52.124;6.018;2022-08-20T00:38:45;19.50;99.90
47600;DHT22;33323;52.124;6.018;2022-08-20T00:41:16;19.60;99.90
47600;DHT22;33323;52.124;6.018;2022-08-20T00:43:50;19.60;99.90
47600;DHT22;33323;52.124;6.018;2022-08-20T00:46:25;19.60;99.90
47600;DHT22;33323;52.124;6.018;2022-08-20T00:48:58;19.50;99.90
47600;DHT22;33323;52.124;6.018;2022-08-20T00:51:36;19.50;99.90
47600;DHT22;33323;52.124;6.018;2022-08-20T00:54:27;19.50;99.90
47600;DHT22;33323;52.124;6.018;2022-08-20T00:57:00;19.50;99.90
47600;DHT22;33323;52.124;6.018;2022-08-20T00:59:32;19.50;99.90
47600;DHT22;33323;52.124;6.018;2022-08-20T01:02:03;19.40;99.90
47600;DHT22;33323;52.124;6.018;2022-08-20T01:04:34;19.50;99.90
47600;DHT22;33323;52.124;6.018;2022-08-20T01:07:02;19.70;99.90
47600;DHT22;33323;52.124;6.018;2022-08-20T01:09:32;19.70;99.90
47600;DHT22;33323;52.124;6.018;2022-08-20T01:12:21;19.60;99.90
47600;DHT22;33323;52.124;6.018;2022-08-20T01:14:49;19.60;99.90
47600;DHT22;33323;52.124;6.018;2022-08-20T01:17:21;19.50;99.90
47600;DHT22;33323;52.124;6.018;2022-08-20T01:19:59;19.50;99.90
47600;DHT22;33323;52.124;6.018;2022-08-20T01:25:53;19.60;99.90
47600;DHT22;33323;52.124;6.018;2022-08-20T01:28:27;19.60;99.90
47600;DHT22;33323;52.124;6.018;2022-08-20T01:30:57;19.50;99.90
47600;DHT22;33323;52.124;6.018;2022-08-20T01:33:25;19.50;99.90
47600;DHT22;33323;52.124;6.018;2022-08-20T01:35:52;19.40;99.90
47600;DHT22;33323;52.124;6.018;2022-08-20T01:38:20;19.40;99.90
47600;DHT22;33323;52.124;6.018;2022-08-20T01:41:14;19.40;99.90
47600;DHT22;33323;52.124;6.018;2022-08-20T01:44:03;19.30;99.90
47600;DHT22;33323;52.124;6.018;2022-08-20T01:46:36;19.30;99.90
47600;DHT22;33323;52.124;6.018;2022-08-20T01:49:32;19.30;99.90
47600;DHT22;33323;52.124;6.018;2022-08-20T01:52:05;19.30;99.90
47600;DHT22;33323;52.124;6.018;2022-08-20T01:54:34;19.40;99.90
47600;DHT22;33323;52.124;6.018;2022-08-20T01:57:11;19.30;99.90
47600;DHT22;33323;52.124;6.018;2022-08-20T01:59:41;19.30;99.90
47600;DHT22;33323;52.124;6.018;2022-08-20T02:02:10;19.30;99.90
47600;DHT22;33323;52.124;6.018;2022-08-20T02:04:39;19.30;99.90
47600;DHT22;33323;52.124;6.018;2022-08-20T02:07:12;19.20;99.90
47600;DHT22;33323;52.124;6.018;2022-08-20T02:09:43;19.50;99.90
47600;DHT22;33323;52.124;6.018;2022-08-20T02:12:11;19.40;99.90
47600;DHT22;33323;52.124;6.018;2022-08-20T02:14:43;19.40;99.90
47600;DHT22;33323;52.124;6.018;2022-08-20T02:17:13;19.30;99.90
47600;DHT22;33323;52.124;6.018;2022-08-20T02:19:44;19.20;99.90
47600;DHT22;33323;52.124;6.018;2022-08-20T02:25:18;19.00;99.90
47600;DHT22;33323;52.124;6.018;2022-08-20T02:27:50;19.00;99.90
47600;DHT22;33323;52.124;6.018;2022-08-20T02:30:22;19.00;99.90
47600;DHT22;33323;52.124;6.018;2022-08-20T02:32:57;19.10;99.90
47600;DHT22;33323;52.124;6.018;2022-08-20T02:35:26;19.00;99.90
47600;DHT22;33323;52.124;6.018;2022-08-20T02:37:54;19.00;99.90
47600;DHT22;33323;52.124;6.018;2022-08-20T02:40:23;19.10;99.90
47600;DHT22;33323;52.124;6.018;2022-08-20T02:42:56;19.00;99.90
47600;DHT22;33323;52.124;6.018;2022-08-20T02:45:26;19.00;99.90
47600;DHT22;33323;52.124;6.018;2022-08-20T02:47:54;19.00;99.90
47600;DHT22;33323;52.124;6.018;2022-08-20T02:50:23;18.90;99.90
47600;DHT22;33323;52.124;6.018;2022-08-20T02:52:51;18.90;99.90
47600;DHT22;33323;52.124;6.018;2022-08-20T02:55:19;18.90;99.90
47600;DHT22;33323;52.124;6.018;2022-08-20T02:57:57;18.90;99.90
47600;DHT22;33323;52.124;6.018;2022-08-20T03:00:28;18.90;99.90
47600;DHT22;33323;52.124;6.018;2022-08-20T03:03:08;18.90;99.90
47600;DHT22;33323;52.124;6.018;2022-08-20T03:05:37;18.90;99.90
47600;DHT22;33323;52.124;6.018;2022-08-20T03:08:08;18.80;99.90
47600;DHT22;33323;52.124;6.018;2022-08-20T03:10:38;18.70;99.90
47600;DHT22;33323;52.124;6.018;2022-08-20T03:13:07;18.70;99.90
47600;DHT22;33323;52.124;6.018;2022-08-20T03:15:40;18.70;99.90
47600;DHT22;33323;52.124;6.018;2022-08-20T03:18:17;18.80;99.90
47600;DHT22;33323;52.124;6.018;2022-08-20T03:20:46;18.80;99.90
47600;DHT22;33323;52.124;6.018;2022-08-20T03:23:19;18.80;99.90
47600;DHT22;33323;52.124;6.018;2022-08-20T03:25:47;18.80;99.90
47600;DHT22;33323;52.124;6.018;2022-08-20T03:28:15;18.60;99.90
47600;DHT22;33323;52.124;6.018;2022-08-20T03:30:43;18.50;99.90
47600;DHT22;33323;52.124;6.018;2022-08-20T03:33:10;18.40;99.90
47600;DHT22;33323;52.124;6.018;2022-08-20T03:35:38;18.40;99.90
47600;DHT22;33323;52.124;6.018;2022-08-20T03:38:10;18.50;99.90
47600;DHT22;33323;52.124;6.018;2022-08-20T03:40:39;18.60;99.90
47600;DHT22;33323;52.124;6.018;2022-08-20T03:43:08;18.70;99.90
47600;DHT22;33323;52.124;6.018;2022-08-20T03:45:37;18.60;99.90
47600;DHT22;33323;52.124;6.018;2022-08-20T03:48:07;18.60;99.90
47600;DHT22;33323;52.124;6.018;2022-08-20T03:50:35;18.60;99.90
47600;DHT22;33323;52.124;6.018;2022-08-20T03:53:03;18.60;99.90
47600;DHT22;33323;52.124;6.018;2022-08-20T03:55:30;18.50;99.90
47600;DHT22;33323;52.124;6.018;2022-08-20T03:58:00;18.60;99.90
47600;DHT22;33323;52.124;6.018;2022-08-20T04:00:41;18.80;99.90
47600;DHT22;33323;52.124;6.018;2022-08-20T04:03:15;18.80;99.90
47600;DHT22;33323;52.124;6.018;2022-08-20T04:05:43;18.70;99.90
47600;DHT22;33323;52.124;6.018;2022-08-20T04:08:22;18.70;99.90
47600;DHT22;33323;52.124;6.018;2022-08-20T04:10:55;18.80;99.90
47600;DHT22;33323;52.124;6.018;2022-08-20T04:13:24;18.60;99.90
47600;DHT22;33323;52.124;6.018;2022-08-20T04:15:53;18.60;99.90
47600;DHT22;33323;52.124;6.018;2022-08-20T04:18:24;18.60;99.90
47600;DHT22;33323;52.124;6.018;2022-08-20T04:20:52;18.50;99.90
47600;DHT22;33323;52.124;6.018;2022-08-20T04:23:20;18.50;99.90
47600;DHT22;33323;52.124;6.018;2022-08-20T04:25:48;18.60;99.90
47600;DHT22;33323;52.124;6.018;2022-08-20T04:28:19;18.60;99.90
47600;DHT22;33323;52.124;6.018;2022-08-20T04:30:56;18.60;99.90
47600;DHT22;33323;52.124;6.018;2022-08-20T04:33:25;18.60;99.90
47600;DHT22;33323;52.124;6.018;2022-08-20T04:36:01;18.40;99.90
47600;DHT22;33323;52.124;6.018;2022-08-20T04:38:31;18.40;99.90
47600;DHT22;33323;52.124;6.018;2022-08-20T04:41:18;18.40;99.90
47600;DHT22;33323;52.124;6.018;2022-08-20T04:43:49;18.50;99.90
47600;DHT22;33323;52.124;6.018;2022-08-20T04:46:17;18.60;99.90
47600;DHT22;33323;52.124;6.018;2022-08-20T04:48:45;18.70;99.90
47600;DHT22;33323;52.124;6.018;2022-08-20T04:51:16;18.60;99.90
47600;DHT22;33323;52.124;6.018;2022-08-20T04:53:45;18.80;99.90
47600;DHT22;33323;52.124;6.018;2022-08-20T04:56:21;18.80;99.90
47600;DHT22;33323;52.124;6.018;2022-08-20T04:58:51;18.70;99.90
47600;DHT22;33323;52.124;6.018;2022-08-20T05:01:20;18.60;99.90
47600;DHT22;33323;52.124;6.018;2022-08-20T05:03:49;18.50;99.90
47600;DHT22;33323;52.124;6.018;2022-08-20T05:06:16;18.50;99.90
47600;DHT22;33323;52.124;6.018;2022-08-20T05:08:44;18.60;99.90
47600;DHT22;33323;52.124;6.018;2022-08-20T05:11:12;18.60;99.90
47600;DHT22;33323;52.124;6.018;2022-08-20T05:14:00;18.60;99.90
47600;DHT22;33323;52.124;6.018;2022-08-20T05:16:27;18.70;99.90
47600;DHT22;33323;52.124;6.018;2022-08-20T05:18:53;18.70;99.90
47600;DHT22;33323;52.124;6.018;2022-08-20T05:21:20;18.70;99.90
47600;DHT22;33323;52.124;6.018;2022-08-20T05:23:48;18.70;99.90
47600;DHT22;33323;52.124;6.018;2022-08-20T05:26:15;18.70;99.90
47600;DHT22;33323;52.124;6.018;2022-08-20T05:28:46;18.70;99.90
47600;DHT22;33323;52.124;6.018;2022-08-20T05:31:28;18.80;99.90
47600;DHT22;33323;52.124;6.018;2022-08-20T05:34:10;18.80;99.90
47600;DHT22;33323;52.124;6.018;2022-08-20T05:36:47;18.80;99.90
47600;DHT22;33323;52.124;6.018;2022-08-20T05:39:20;18.60;99.90
47600;DHT22;33323;52.124;6.018;2022-08-20T05:41:49;18.60;99.90
47600;DHT22;33323;52.124;6.018;2022-08-20T05:44:18;18.60;99.90
47600;DHT22;33323;52.124;6.018;2022-08-20T05:46:48;18.60;99.90
47600;DHT22;33323;52.124;6.018;2022-08-20T05:49:18;18.70;99.90
47600;DHT22;33323;52.124;6.018;2022-08-20T05:51:48;18.80;99.90
47600;DHT22;33323;52.124;6.018;2022-08-20T05:54:17;18.70;99.90
47600;DHT22;33323;52.124;6.018;2022-08-20T05:56:45;18.90;99.90
47600;DHT22;33323;52.124;6.018;2022-08-20T05:59:15;18.90;99.90
47600;DHT22;33323;52.124;6.018;2022-08-20T06:01:52;18.90;99.90
47600;DHT22;33323;52.124;6.018;2022-08-20T06:04:20;18.80;99.90
47600;DHT22;33323;52.124;6.018;2022-08-20T06:06:52;18.80;99.90
47600;DHT22;33323;52.124;6.018;2022-08-20T06:09:29;18.80;99.90
47600;DHT22;33323;52.124;6.018;2022-08-20T06:12:03;18.80;99.90
47600;DHT22;33323;52.124;6.018;2022-08-20T06:14:32;18.70;99.90
47600;DHT22;33323;52.124;6.018;2022-08-20T06:17:12;18.70;99.90
47600;DHT22;33323;52.124;6.018;2022-08-20T06:19:42;18.70;99.90
47600;DHT22;33323;52.124;6.018;2022-08-20T06:22:13;18.70;99.90
47600;DHT22;33323;52.124;6.018;2022-08-20T06:24:48;18.80;99.90
47600;DHT22;33323;52.124;6.018;2022-08-20T06:27:15;18.90;99.90
47600;DHT22;33323;52.124;6.018;2022-08-20T06:29:43;18.90;99.90
47600;DHT22;33323;52.124;6.018;2022-08-20T06:32:10;18.90;99.90
47600;DHT22;33323;52.124;6.018;2022-08-20T06:34:37;19.00;99.90
47600;DHT22;33323;52.124;6.018;2022-08-20T06:37:25;19.00;99.90
47600;DHT22;33323;52.124;6.018;2022-08-20T06:40:11;19.00;99.90
47600;DHT22;33323;52.124;6.018;2022-08-20T06:42:41;19.00;99.90
47600;DHT22;33323;52.124;6.018;2022-08-20T06:45:17;19.20;99.90
47600;DHT22;33323;52.124;6.018;2022-08-20T06:47:53;19.20;99.90
47600;DHT22;33323;52.124;6.018;2022-08-20T06:50:25;19.30;99.90
47600;DHT22;33323;52.124;6.018;2022-08-20T06:53:17;19.40;99.90
47600;DHT22;33323;52.124;6.018;2022-08-20T06:55:50;19.40;99.90
47600;DHT22;33323;52.124;6.018;2022-08-20T06:58:19;19.50;99.90
47600;DHT22;33323;52.124;6.018;2022-08-20T07:01:05;19.50;99.90
47600;DHT22;33323;52.124;6.018;2022-08-20T07:03:40;19.40;99.90
47600;DHT22;33323;52.124;6.018;2022-08-20T07:06:24;19.50;99.90
47600;DHT22;33323;52.124;6.018;2022-08-20T07:08:55;19.50;99.90
47600;DHT22;33323;52.124;6.018;2022-08-20T07:11:22;19.70;99.90
47600;DHT22;33323;52.124;6.018;2022-08-20T07:13:55;19.80;99.90
47600;DHT22;33323;52.124;6.018;2022-08-20T07:16:24;19.80;99.90
47600;DHT22;33323;52.124;6.018;2022-08-20T07:18:51;19.70;99.90
47600;DHT22;33323;52.124;6.018;2022-08-20T07:21:18;19.70;99.90
47600;DHT22;33323;52.124;6.018;2022-08-20T07:23:44;19.80;99.90
47600;DHT22;33323;52.124;6.018;2022-08-20T07:26:14;19.90;99.90
47600;DHT22;33323;52.124;6.018;2022-08-20T07:28:41;19.80;99.90
47600;DHT22;33323;52.124;6.018;2022-08-20T07:31:08;19.90;99.90
47600;DHT22;33323;52.124;6.018;2022-08-20T07:33:57;19.90;99.90
47600;DHT22;33323;52.124;6.018;2022-08-20T07:36:25;19.90;99.90
47600;DHT22;33323;52.124;6.018;2022-08-20T07:38:53;20.10;99.90
47600;DHT22;33323;52.124;6.018;2022-08-20T07:41:23;20.80;99.90
47600;DHT22;33323;52.124;6.018;2022-08-20T07:43:50;21.40;99.00
47600;DHT22;33323;52.124;6.018;2022-08-20T07:46:18;21.80;96.80
47600;DHT22;33323;52.124;6.018;2022-08-20T07:48:48;22.20;95.20
47600;DHT22;33323;52.124;6.018;2022-08-20T07:51:18;22.30;93.00
47600;DHT22;33323;52.124;6.018;2022-08-20T07:53:49;22.50;93.00
47600;DHT22;33323;52.124;6.018;2022-08-20T07:56:19;22.60;93.40
47600;DHT22;33323;52.124;6.018;2022-08-20T07:58:52;22.90;91.70
47600;DHT22;33323;52.124;6.018;2022-08-20T08:01:27;22.90;88.70
47600;DHT22;33323;52.124;6.018;2022-08-20T08:03:56;22.70;88.20
47600;DHT22;33323;52.124;6.018;2022-08-20T08:06:25;22.80;90.60
47600;DHT22;33323;52.124;6.018;2022-08-20T08:09:07;23.10;90.10
47600;DHT22;33323;52.124;6.018;2022-08-20T08:11:40;23.40;82.10
47600;DHT22;33323;52.124;6.018;2022-08-20T08:14:13;23.60;86.80
47600;DHT22;33323;52.124;6.018;2022-08-20T08:16:42;23.90;78.60
47600;DHT22;33323;52.124;6.018;2022-08-20T08:19:13;24.00;69.00
47600;DHT22;33323;52.124;6.018;2022-08-20T08:21:41;23.70;70.30
47600;DHT22;33323;52.124;6.018;2022-08-20T08:24:09;23.30;74.10
47600;DHT22;33323;52.124;6.018;2022-08-20T08:26:42;23.70;76.50
47600;DHT22;33323;52.124;6.018;2022-08-20T08:29:10;23.90;72.50
47600;DHT22;33323;52.124;6.018;2022-08-20T08:31:37;23.60;67.20
47600;DHT22;33323;52.124;6.018;2022-08-20T08:34:06;23.80;77.90
47600;DHT22;33323;52.124;6.018;2022-08-20T08:36:33;23.90;74.90
47600;DHT22;33323;52.124;6.018;2022-08-20T08:39:00;23.80;70.40
47600;DHT22;33323;52.124;6.018;2022-08-20T08:44:13;23.40;70.70
47600;DHT22;33323;52.124;6.018;2022-08-20T08:46:46;23.20;74.40
47600;DHT22;33323;52.124;6.018;2022-08-20T08:49:18;23.50;70.10
47600;DHT22;33323;52.124;6.018;2022-08-20T08:51:54;23.90;68.20
47600;DHT22;33323;52.124;6.018;2022-08-20T08:54:27;23.70;73.50
47600;DHT22;33323;52.124;6.018;2022-08-20T08:56:56;23.80;66.70
47600;DHT22;33323;52.124;6.018;2022-08-20T08:59:27;23.70;73.30
47600;DHT22;33323;52.124;6.018;2022-08-20T09:02:22;24.30;70.40
47600;DHT22;33323;52.124;6.018;2022-08-20T09:04:53;24.60;68.30
47600;DHT22;33323;52.124;6.018;2022-08-20T09:07:24;24.80;69.80
47600;DHT22;33323;52.124;6.018;2022-08-20T09:09:53;24.90;66.80
47600;DHT22;33323;52.124;6.018;2022-08-20T09:12:22;25.10;65.20
47600;DHT22;33323;52.124;6.018;2022-08-20T09:14:51;24.90;62.70
47600;DHT22;33323;52.124;6.018;2022-08-20T09:17:20;24.80;66.30
47600;DHT22;33323;52.124;6.018;2022-08-20T09:19:48;24.40;65.00
47600;DHT22;33323;52.124;6.018;2022-08-20T09:22:20;24.60;67.60
47600;DHT22;33323;52.124;6.018;2022-08-20T09:24:49;24.90;60.80
47600;DHT22;33323;52.124;6.018;2022-08-20T09:27:16;25.20;59.60
47600;DHT22;33323;52.124;6.018;2022-08-20T09:29:43;25.30;62.70
47600;DHT22;33323;52.124;6.018;2022-08-20T09:32:19;25.40;59.80
47600;DHT22;33323;52.124;6.018;2022-08-20T09:34:49;25.40;57.20
47600;DHT22;33323;52.124;6.018;2022-08-20T09:37:25;24.90;58.20
47600;DHT22;33323;52.124;6.018;2022-08-20T09:39:57;24.80;60.40
47600;DHT22;33323;52.124;6.018;2022-08-20T09:42:30;24.90;54.30
47600;DHT22;33323;52.124;6.018;2022-08-20T09:45:05;25.30;56.30
47600;DHT22;33323;52.124;6.018;2022-08-20T09:47:37;25.20;54.10
47600;DHT22;33323;52.124;6.018;2022-08-20T09:50:21;24.90;56.90
47600;DHT22;33323;52.124;6.018;2022-08-20T09:52:50;24.50;60.50
47600;DHT22;33323;52.124;6.018;2022-08-20T09:58:06;24.70;59.20
47600;DHT22;33323;52.124;6.018;2022-08-20T10:00:39;24.70;58.60
47600;DHT22;33323;52.124;6.018;2022-08-20T10:03:05;24.90;55.90
47600;DHT22;33323;52.124;6.018;2022-08-20T10:05:32;25.00;60.80
47600;DHT22;33323;52.124;6.018;2022-08-20T10:08:07;25.10;61.70
47600;DHT22;33323;52.124;6.018;2022-08-20T10:10:36;24.90;59.70
47600;DHT22;33323;52.124;6.018;2022-08-20T10:13:03;24.50;54.30
47600;DHT22;33323;52.124;6.018;2022-08-20T10:15:31;24.40;62.00
47600;DHT22;33323;52.124;6.018;2022-08-20T10:18:01;24.50;61.50
47600;DHT22;33323;52.124;6.018;2022-08-20T10:20:31;24.50;63.50
47600;DHT22;33323;52.124;6.018;2022-08-20T10:22:58;24.20;61.50
47600;DHT22;33323;52.124;6.018;2022-08-20T10:25:25;24.70;64.10
47600;DHT22;33323;52.124;6.018;2022-08-20T10:27:52;24.90;59.90
47600;DHT22;33323;52.124;6.018;2022-08-20T10:30:19;24.90;60.40
47600;DHT22;33323;52.124;6.018;2022-08-20T10:32:46;25.10;59.00
47600;DHT22;33323;52.124;6.018;2022-08-20T10:35:14;25.50;51.50
47600;DHT22;33323;52.124;6.018;2022-08-20T10:37:41;25.10;53.10
47600;DHT22;33323;52.124;6.018;2022-08-20T10:40:08;24.50;55.10
47600;DHT22;33323;52.124;6.018;2022-08-20T10:42:36;24.00;52.90
47600;DHT22;33323;52.124;6.018;2022-08-20T10:45:09;23.70;55.30
47600;DHT22;33323;52.124;6.018;2022-08-20T10:47:38;23.70;58.30
47600;DHT22;33323;52.124;6.018;2022-08-20T10:50:08;23.90;55.20
47600;DHT22;33323;52.124;6.018;2022-08-20T10:52:36;24.60;54.40
47600;DHT22;33323;52.124;6.018;2022-08-20T10:55:04;24.80;52.90
47600;DHT22;33323;52.124;6.018;2022-08-20T10:57:32;24.90;48.80
47600;DHT22;33323;52.124;6.018;2022-08-20T11:00:00;25.40;47.40
47600;DHT22;33323;52.124;6.018;2022-08-20T11:02:28;25.70;46.60
47600;DHT22;33323;52.124;6.018;2022-08-20T11:04:55;25.90;47.50
47600;DHT22;33323;52.124;6.018;2022-08-20T11:07:27;25.80;43.10
47600;DHT22;33323;52.124;6.018;2022-08-20T11:10:16;25.70;46.40
47600;DHT22;33323;52.124;6.018;2022-08-20T11:12:43;25.80;44.70
47600;DHT22;33323;52.124;6.018;2022-08-20T11:15:12;25.90;47.40
47600;DHT22;33323;52.124;6.018;2022-08-20T11:17:42;26.10;45.50
47600;DHT22;33323;52.124;6.018;2022-08-20T11:20:12;26.40;46.00
47600;DHT22;33323;52.124;6.018;2022-08-20T11:22:41;26.30;46.10
47600;DHT22;33323;52.124;6.018;2022-08-20T11:25:08;25.50;47.10
47600;DHT22;33323;52.124;6.018;2022-08-20T11:27:39;25.10;46.50
47600;DHT22;33323;52.124;6.018;2022-08-20T11:30:10;24.80;47.40
47600;DHT22;33323;52.124;6.018;2022-08-20T11:32:39;24.50;48.40
47600;DHT22;33323;52.124;6.018;2022-08-20T11:35:08;24.70;46.90
47600;DHT22;33323;52.124;6.018;2022-08-20T11:37:56;25.40;45.20
47600;DHT22;33323;52.124;6.018;2022-08-20T11:40:25;25.70;41.90
47600;DHT22;33323;52.124;6.018;2022-08-20T11:42:52;25.70;43.20
47600;DHT22;33323;52.124;6.018;2022-08-20T11:45:39;25.30;45.30
47600;DHT22;33323;52.124;6.018;2022-08-20T11:48:06;25.20;46.80
47600;DHT22;33323;52.124;6.018;2022-08-20T11:50:33;25.80;47.30
47600;DHT22;33323;52.124;6.018;2022-08-20T11:53:00;26.20;47.40
47600;DHT22;33323;52.124;6.018;2022-08-20T11:55:27;25.90;44.60
47600;DHT22;33323;52.124;6.018;2022-08-20T11:57:57;25.40;45.70
47600;DHT22;33323;52.124;6.018;2022-08-20T12:00:27;24.70;47.10
47600;DHT22;33323;52.124;6.018;2022-08-20T12:03:03;24.30;46.60
47600;DHT22;33323;52.124;6.018;2022-08-20T12:05:39;24.10;47.40
47600;DHT22;33323;52.124;6.018;2022-08-20T12:08:07;24.20;46.70
47600;DHT22;33323;52.124;6.018;2022-08-20T12:10:35;24.30;47.70
47600;DHT22;33323;52.124;6.018;2022-08-20T12:13:04;24.40;48.20
47600;DHT22;33323;52.124;6.018;2022-08-20T12:15:33;24.30;47.00
47600;DHT22;33323;52.124;6.018;2022-08-20T12:18:06;24.30;46.90
47600;DHT22;33323;52.124;6.018;2022-08-20T12:20:33;24.60;45.70
47600;DHT22;33323;52.124;6.018;2022-08-20T12:23:01;25.00;43.70
47600;DHT22;33323;52.124;6.018;2022-08-20T12:25:29;25.70;45.40
47600;DHT22;33323;52.124;6.018;2022-08-20T12:27:56;26.10;43.70
47600;DHT22;33323;52.124;6.018;2022-08-20T12:30:24;26.20;42.50
47600;DHT22;33323;52.124;6.018;2022-08-20T12:32:51;26.00;42.90
47600;DHT22;33323;52.124;6.018;2022-08-20T12:35:18;25.30;42.10
47600;DHT22;33323;52.124;6.018;2022-08-20T12:37:46;25.20;44.50
47600;DHT22;33323;52.124;6.018;2022-08-20T12:40:18;25.30;41.60
47600;DHT22;33323;52.124;6.018;2022-08-20T12:42:59;25.50;44.00
47600;DHT22;33323;52.124;6.018;2022-08-20T12:45:27;25.80;40.40
47600;DHT22;33323;52.124;6.018;2022-08-20T12:48:03;25.50;39.60
47600;DHT22;33323;52.124;6.018;2022-08-20T12:50:35;25.70;38.70
47600;DHT22;33323;52.124;6.018;2022-08-20T12:53:03;25.90;39.30
47600;DHT22;33323;52.124;6.018;2022-08-20T12:55:31;25.60;40.30
47600;DHT22;33323;52.124;6.018;2022-08-20T12:58:00;25.50;41.10
47600;DHT22;33323;52.124;6.018;2022-08-20T13:00:33;25.80;39.90
47600;DHT22;33323;52.124;6.018;2022-08-20T13:03:10;26.10;37.90
47600;DHT22;33323;52.124;6.018;2022-08-20T13:05:38;26.00;38.20
47600;DHT22;33323;52.124;6.018;2022-08-20T13:08:09;25.80;37.90
47600;DHT22;33323;52.124;6.018;2022-08-20T13:10:41;25.60;39.50
47600;DHT22;33323;52.124;6.018;2022-08-20T13:13:15;25.00;38.10
47600;DHT22;33323;52.124;6.018;2022-08-20T13:15:47;24.90;41.90
47600;DHT22;33323;52.124;6.018;2022-08-20T13:18:15;24.90;39.80
47600;DHT22;33323;52.124;6.018;2022-08-20T13:20:42;24.90;39.80
47600;DHT22;33323;52.124;6.018;2022-08-20T13:23:10;25.30;40.00
47600;DHT22;33323;52.124;6.018;2022-08-20T13:25:37;25.70;40.40
47600;DHT22;33323;52.124;6.018;2022-08-20T13:28:04;25.70;37.40
47600;DHT22;33323;52.124;6.018;2022-08-20T13:30:33;25.50;38.70
47600;DHT22;33323;52.124;6.018;2022-08-20T13:33:03;25.30;41.00
47600;DHT22;33323;52.124;6.018;2022-08-20T13:35:30;25.20;42.20
47600;DHT22;33323;52.124;6.018;2022-08-20T13:37:57;25.60;42.00
47600;DHT22;33323;52.124;6.018;2022-08-20T13:40:24;25.80;40.90
47600;DHT22;33323;52.124;6.018;2022-08-20T13:42:51;26.10;40.10
47600;DHT22;33323;52.124;6.018;2022-08-20T13:45:21;25.80;38.90
47600;DHT22;33323;52.124;6.018;2022-08-20T13:47:52;26.00;39.00
47600;DHT22;33323;52.124;6.018;2022-08-20T13:50:22;26.20;39.10
47600;DHT22;33323;52.124;6.018;2022-08-20T13:52:51;26.20;40.70
47600;DHT22;33323;52.124;6.018;2022-08-20T13:55:20;26.30;37.20
47600;DHT22;33323;52.124;6.018;2022-08-20T13:57:49;26.40;38.80
47600;DHT22;33323;52.124;6.018;2022-08-20T14:00:21;26.60;38.10
47600;DHT22;33323;52.124;6.018;2022-08-20T14:02:58;26.40;37.80
47600;DHT22;33323;52.124;6.018;2022-08-20T14:05:29;26.30;38.00
47600;DHT22;33323;52.124;6.018;2022-08-20T14:08:04;26.10;38.30
47600;DHT22;33323;52.124;6.018;2022-08-20T14:10:33;25.80;40.40
47600;DHT22;33323;52.124;6.018;2022-08-20T14:13:01;25.30;39.40
47600;DHT22;33323;52.124;6.018;2022-08-20T14:15:29;25.10;40.40
47600;DHT22;33323;52.124;6.018;2022-08-20T14:17:56;25.00;38.40
47600;DHT22;33323;52.124;6.018;2022-08-20T14:20:30;24.90;40.40
47600;DHT22;33323;52.124;6.018;2022-08-20T14:22:59;24.90;40.90
47600;DHT22;33323;52.124;6.018;2022-08-20T14:25:28;25.00;40.60
47600;DHT22;33323;52.124;6.018;2022-08-20T14:27:56;24.90;41.50
47600;DHT22;33323;52.124;6.018;2022-08-20T14:30:26;24.90;41.80
47600;DHT22;33323;52.124;6.018;2022-08-20T14:32:55;24.80;42.20
47600;DHT22;33323;52.124;6.018;2022-08-20T14:35:22;24.90;43.20
47600;DHT22;33323;52.124;6.018;2022-08-20T14:37:52;24.90;42.80
47600;DHT22;33323;52.124;6.018;2022-08-20T14:40:23;24.80;41.30
47600;DHT22;33323;52.124;6.018;2022-08-20T14:42:51;24.80;43.40
47600;DHT22;33323;52.124;6.018;2022-08-20T14:45:19;24.80;41.90
47600;DHT22;33323;52.124;6.018;2022-08-20T14:47:52;24.90;43.50
47600;DHT22;33323;52.124;6.018;2022-08-20T14:50:30;24.70;42.80
47600;DHT22;33323;52.124;6.018;2022-08-20T14:52:59;24.80;44.00
47600;DHT22;33323;52.124;6.018;2022-08-20T14:55:34;24.80;44.10
47600;DHT22;33323;52.124;6.018;2022-08-20T14:58:09;24.80;45.00
47600;DHT22;33323;52.124;6.018;2022-08-20T15:00:38;24.80;44.90
47600;DHT22;33323;52.124;6.018;2022-08-20T15:03:05;24.90;45.50
47600;DHT22;33323;52.124;6.018;2022-08-20T15:05:33;24.50;43.10
47600;DHT22;33323;52.124;6.018;2022-08-20T15:08:05;24.30;45.90
47600;DHT22;33323;52.124;6.018;2022-08-20T15:10:32;24.60;43.40
47600;DHT22;33323;52.124;6.018;2022-08-20T15:12:59;24.70;45.00
47600;DHT22;33323;52.124;6.018;2022-08-20T15:15:27;24.90;44.80
47600;DHT22;33323;52.124;6.018;2022-08-20T15:17:56;25.00;47.00
47600;DHT22;33323;52.124;6.018;2022-08-20T15:20:28;25.00;44.90
47600;DHT22;33323;52.124;6.018;2022-08-20T15:22:57;24.90;44.80
47600;DHT22;33323;52.124;6.018;2022-08-20T15:25:27;25.30;46.70
47600;DHT22;33323;52.124;6.018;2022-08-20T15:28:05;25.20;43.20
47600;DHT22;33323;52.124;6.018;2022-08-20T15:30:35;24.90;44.80
47600;DHT22;33323;52.124;6.018;2022-08-20T15:33:03;25.10;44.10
47600;DHT22;33323;52.124;6.018;2022-08-20T15:35:30;25.50;44.70
47600;DHT22;33323;52.124;6.018;2022-08-20T15:37:58;25.60;44.30
47600;DHT22;33323;52.124;6.018;2022-08-20T15:40:28;25.80;44.30
47600;DHT22;33323;52.124;6.018;2022-08-20T15:42:58;25.70;42.20
47600;DHT22;33323;52.124;6.018;2022-08-20T15:45:26;25.60;42.10
47600;DHT22;33323;52.124;6.018;2022-08-20T15:47:58;25.50;43.10
47600;DHT22;33323;52.124;6.018;2022-08-20T15:53:38;25.20;44.80
47600;DHT22;33323;52.124;6.018;2022-08-20T16:11:28;25.30;44.80
47600;DHT22;33323;52.124;6.018;2022-08-20T16:14:23;24.80;45.20
47600;DHT22;33323;52.124;6.018;2022-08-20T16:16:59;24.70;47.60
47600;DHT22;33323;52.124;6.018;2022-08-20T16:22:41;24.40;48.00
47600;DHT22;33323;52.124;6.018;2022-08-20T16:25:10;24.60;48.10
47600;DHT22;33323;52.124;6.018;2022-08-20T16:28:24;24.50;48.00